sensor_id;sensor_type;location;lat;lon;timestamp;temperature;humidity
48998;DHT22;34807;51.456;7.244;2023-09-30T00:02:05;16.30;98.00
48998;DHT22;34807;51.456;7.244;2023-09-30T00:04:30;16.30;98.00
48998;DHT22;34807;51.456;7.244;2023-09-30T00:06:56;16.30;98.00
48998;DHT22;34807;51.456;7.244;2023-09-30T00:09:21;16.20;98.00
48998;DHT22;34807;51.456;7.244;2023-09-30T00:11:47;16.20;98.00
48998;DHT22;34807;51.456;7.244;2023-09-30T00:14:12;16.20;98.00
48998;DHT22;34807;51.456;7.244;2023-09-30T00:16:38;16.20;98.00
48998;DHT22;34807;51.456;7.244;2023-09-30T00:19:03;16.20;98.00
48998;DHT22;34807;51.456;7.244;2023-09-30T00:21:29;16.20;98.00
48998;DHT22;34807;51.456;7.244;2023-09-30T00:23:55;16.10;98.00
48998;DHT22;34807;51.456;7.244;2023-09-30T00:26:20;16.10;98.00
48998;DHT22;34807;51.456;7.244;2023-09-30T00:28:47;16.10;98.00
48998;DHT22;34807;51.456;7.244;2023-09-30T00:31:12;16.10;98.00
48998;DHT22;34807;51.456;7.244;2023-09-30T00:33:38;16.10;98.00
48998;DHT22;34807;51.456;7.244;2023-09-30T00:36:07;16.10;98.00
48998;DHT22;34807;51.456;7.244;2023-09-30T00:38:33;16.10;98.00
48998;DHT22;34807;51.456;7.244;2023-09-30T00:40:58;16.10;98.00
48998;DHT22;34807;51.456;7.244;2023-09-30T00:43:24;16.00;98.00
48998;DHT22;34807;51.456;7.244;2023-09-30T00:46:01;16.10;98.00
48998;DHT22;34807;51.456;7.244;2023-09-30T00:48:27;16.00;98.00
48998;DHT22;34807;51.456;7.244;2023-09-30T00:50:52;16.00;98.00
48998;DHT22;34807;51.456;7.244;2023-09-30T00:53:18;16.00;98.00
48998;DHT22;34807;51.456;7.244;2023-09-30T00:55:43;16.00;98.00
48998;DHT22;34807;51.456;7.244;2023-09-30T00:58:09;16.00;97.90
48998;DHT22;34807;51.456;7.244;2023-09-30T01:00:35;16.00;98.00
48998;DHT22;34807;51.456;7.244;2023-09-30T01:03:00;16.00;98.00
48998;DHT22;34807;51.456;7.244;2023-09-30T01:05:29;16.00;98.00
48998;DHT22;34807;51.456;7.244;2023-09-30T01:07:55;16.00;98.00
48998;DHT22;34807;51.456;7.244;2023-09-30T01:10:21;15.90;98.00
48998;DHT22;34807;51.456;7.244;2023-09-30T01:12:46;15.90;97.90
48998;DHT22;34807;51.456;7.244;2023-09-30T01:15:12;15.90;98.00
48998;DHT22;34807;51.456;7.244;2023-09-30T01:17:37;15.90;98.00
48998;DHT22;34807;51.456;7.244;2023-09-30T01:20:03;15.90;98.00
48998;DHT22;34807;51.456;7.244;2023-09-30T01:22:33;15.90;97.90
48998;DHT22;34807;51.456;7.244;2023-09-30T01:24:59;15.90;97.90
48998;DHT22;34807;51.456;7.244;2023-09-30T01:27:24;15.90;98.00
48998;DHT22;34807;51.456;7.244;2023-09-30T01:29:50;15.90;98.00
48998;DHT22;34807;51.456;7.244;2023-09-30T01:32:16;15.90;98.00
48998;DHT22;34807;51.456;7.244;2023-09-30T01:34:42;15.80;98.00
48998;DHT22;34807;51.456;7.244;2023-09-30T01:37:07;15.80;98.00
48998;DHT22;34807;51.456;7.244;2023-09-30T01:39:33;15.80;97.90
48998;DHT22;34807;51.456;7.244;2023-09-30T01:41:59;15.80;97.90
48998;DHT22;34807;51.456;7.244;2023-09-30T01:44:24;15.80;97.90
48998;DHT22;34807;51.456;7.244;2023-09-30T01:46:51;15.80;97.90
48998;DHT22;34807;51.456;7.244;2023-09-30T01:49:16;15.80;97.90
48998;DHT22;34807;51.456;7.244;2023-09-30T01:51:43;15.80;98.00
48998;DHT22;34807;51.456;7.244;2023-09-30T01:54:09;15.80;98.00
48998;DHT22;34807;51.456;7.244;2023-09-30T01:56:36;15.80;98.00
48998;DHT22;34807;51.456;7.244;2023-09-30T01:59:01;15.80;97.90
48998;DHT22;34807;51.456;7.244;2023-09-30T02:01:27;15.70;97.90
48998;DHT22;34807;51.456;7.244;2023-09-30T02:03:52;15.70;98.00
48998;DHT22;34807;51.456;7.244;2023-09-30T02:06:18;15.70;98.00
48998;DHT22;34807;51.456;7.244;2023-09-30T02:08:44;15.70;98.00
48998;DHT22;34807;51.456;7.244;2023-09-30T02:11:10;15.70;98.00
48998;DHT22;34807;51.456;7.244;2023-09-30T02:13:36;15.70;98.00
48998;DHT22;34807;51.456;7.244;2023-09-30T02:16:01;15.70;98.20
48998;DHT22;34807;51.456;7.244;2023-09-30T02:18:27;15.70;98.00
48998;DHT22;34807;51.456;7.244;2023-09-30T02:20:52;15.70;97.90
48998;DHT22;34807;51.456;7.244;2023-09-30T02:23:18;15.70;98.00
48998;DHT22;34807;51.456;7.244;2023-09-30T02:25:44;15.60;97.80
48998;DHT22;34807;51.456;7.244;2023-09-30T02:28:09;15.60;97.90
48998;DHT22;34807;51.456;7.244;2023-09-30T02:30:35;15.70;97.90
48998;DHT22;34807;51.456;7.244;2023-09-30T02:33:01;15.60;98.20
48998;DHT22;34807;51.456;7.244;2023-09-30T02:35:27;15.60;97.90
48998;DHT22;34807;51.456;7.244;2023-09-30T02:37:53;15.60;97.90
48998;DHT22;34807;51.456;7.244;2023-09-30T02:40:19;15.60;98.00
48998;DHT22;34807;51.456;7.244;2023-09-30T02:42:45;15.60;98.00
48998;DHT22;34807;51.456;7.244;2023-09-30T02:45:11;15.50;97.90
48998;DHT22;34807;51.456;7.244;2023-09-30T02:47:37;15.50;97.90
48998;DHT22;34807;51.456;7.244;2023-09-30T02:50:04;15.50;97.90
48998;DHT22;34807;51.456;7.244;2023-09-30T02:52:30;15.50;97.90
48998;DHT22;34807;51.456;7.244;2023-09-30T02:54:55;15.50;97.90
48998;DHT22;34807;51.456;7.244;2023-09-30T02:57:23;15.50;97.90
48998;DHT22;34807;51.456;7.244;2023-09-30T02:59:48;15.50;98.00
48998;DHT22;34807;51.456;7.244;2023-09-30T03:02:14;15.50;98.00
48998;DHT22;34807;51.456;7.244;2023-09-30T03:04:41;15.40;98.00
48998;DHT22;34807;51.456;7.244;2023-09-30T03:07:07;15.40;97.90
48998;DHT22;34807;51.456;7.244;2023-09-30T03:09:34;15.40;97.90
48998;DHT22;34807;51.456;7.244;2023-09-30T03:11:59;15.40;97.90
48998;DHT22;34807;51.456;7.244;2023-09-30T03:14:25;15.40;97.90
48998;DHT22;34807;51.456;7.244;2023-09-30T03:16:51;15.40;97.90
48998;DHT22;34807;51.456;7.244;2023-09-30T03:19:17;15.40;97.90
48998;DHT22;34807;51.456;7.244;2023-09-30T03:21:43;15.40;97.90
48998;DHT22;34807;51.456;7.244;2023-09-30T03:24:08;15.40;97.90
48998;DHT22;34807;51.456;7.244;2023-09-30T03:26:34;15.30;97.90
48998;DHT22;34807;51.456;7.244;2023-09-30T03:28:59;15.30;97.90
48998;DHT22;34807;51.456;7.244;2023-09-30T03:31:25;15.30;97.90
48998;DHT22;34807;51.456;7.244;2023-09-30T03:33:51;15.30;97.90
48998;DHT22;34807;51.456;7.244;2023-09-30T03:36:22;15.30;97.90
48998;DHT22;34807;51.456;7.244;2023-09-30T03:38:51;15.30;97.90
48998;DHT22;34807;51.456;7.244;2023-09-30T03:41:20;15.30;97.90
48998;DHT22;34807;51.456;7.244;2023-09-30T03:43:45;15.30;98.00
48998;DHT22;34807;51.456;7.244;2023-09-30T03:46:11;15.20;97.90
48998;DHT22;34807;51.456;7.244;2023-09-30T03:48:37;15.20;97.90
48998;DHT22;34807;51.456;7.244;2023-09-30T03:51:08;15.30;97.90
48998;DHT22;34807;51.456;7.244;2023-09-30T03:53:34;15.20;97.90
48998;DHT22;34807;51.456;7.244;2023-09-30T03:55:59;15.20;97.90
48998;DHT22;34807;51.456;7.244;2023-09-30T03:58:25;15.20;97.90
48998;DHT22;34807;51.456;7.244;2023-09-30T04:00:51;15.20;97.90
48998;DHT22;34807;51.456;7.244;2023-09-30T04:03:17;15.20;97.90
48998;DHT22;34807;51.456;7.244;2023-09-30T04:05:42;15.20;97.90
48998;DHT22;34807;51.456;7.244;2023-09-30T04:08:08;15.20;97.90
48998;DHT22;34807;51.456;7.244;2023-09-30T04:10:33;15.20;97.90
48998;DHT22;34807;51.456;7.244;2023-09-30T04:12:59;15.10;97.90
48998;DHT22;34807;51.456;7.244;2023-09-30T04:15:25;15.10;97.90
48998;DHT22;34807;51.456;7.244;2023-09-30T04:17:50;15.10;97.90
48998;DHT22;34807;51.456;7.244;2023-09-30T04:20:18;15.10;97.90
48998;DHT22;34807;51.456;7.244;2023-09-30T04:22:46;15.10;97.90
48998;DHT22;34807;51.456;7.244;2023-09-30T04:25:14;15.10;97.80
48998;DHT22;34807;51.456;7.244;2023-09-30T04:27:42;15.10;97.90
48998;DHT22;34807;51.456;7.244;2023-09-30T04:30:08;15.00;97.80
48998;DHT22;34807;51.456;7.244;2023-09-30T04:32:37;15.00;97.80
48998;DHT22;34807;51.456;7.244;2023-09-30T04:35:06;15.00;97.80
48998;DHT22;34807;51.456;7.244;2023-09-30T04:37:33;15.00;97.80
48998;DHT22;34807;51.456;7.244;2023-09-30T04:39:59;15.00;97.80
48998;DHT22;34807;51.456;7.244;2023-09-30T04:42:24;15.00;97.80
48998;DHT22;34807;51.456;7.244;2023-09-30T04:44:53;15.00;97.80
48998;DHT22;34807;51.456;7.244;2023-09-30T04:47:21;15.00;97.80
48998;DHT22;34807;51.456;7.244;2023-09-30T04:49:47;14.90;97.80
48998;DHT22;34807;51.456;7.244;2023-09-30T04:52:12;14.90;97.80
48998;DHT22;34807;51.456;7.244;2023-09-30T04:54:38;14.90;97.80
48998;DHT22;34807;51.456;7.244;2023-09-30T04:57:03;15.00;97.80
48998;DHT22;34807;51.456;7.244;2023-09-30T04:59:29;14.90;97.80
48998;DHT22;34807;51.456;7.244;2023-09-30T05:01:55;14.90;97.80
48998;DHT22;34807;51.456;7.244;2023-09-30T05:04:21;14.90;97.80
48998;DHT22;34807;51.456;7.244;2023-09-30T05:06:49;14.90;97.80
48998;DHT22;34807;51.456;7.244;2023-09-30T05:09:14;14.90;97.80
48998;DHT22;34807;51.456;7.244;2023-09-30T05:11:40;14.80;97.80
48998;DHT22;34807;51.456;7.244;2023-09-30T05:14:05;14.80;97.80
48998;DHT22;34807;51.456;7.244;2023-09-30T05:16:31;14.80;97.70
48998;DHT22;34807;51.456;7.244;2023-09-30T05:18:57;14.80;97.70
48998;DHT22;34807;51.456;7.244;2023-09-30T05:21:22;14.80;97.70
48998;DHT22;34807;51.456;7.244;2023-09-30T05:23:48;14.80;97.70
48998;DHT22;34807;51.456;7.244;2023-09-30T05:26:14;14.70;97.70
48998;DHT22;34807;51.456;7.244;2023-09-30T05:28:40;14.80;97.70
48998;DHT22;34807;51.456;7.244;2023-09-30T05:31:06;14.70;97.70
48998;DHT22;34807;51.456;7.244;2023-09-30T05:33:33;14.70;97.70
48998;DHT22;34807;51.456;7.244;2023-09-30T05:36:00;14.70;97.70
48998;DHT22;34807;51.456;7.244;2023-09-30T05:38:28;14.70;97.70
48998;DHT22;34807;51.456;7.244;2023-09-30T05:40:54;14.70;97.70
48998;DHT22;34807;51.456;7.244;2023-09-30T05:43:20;14.70;97.70
48998;DHT22;34807;51.456;7.244;2023-09-30T05:45:47;14.70;97.70
48998;DHT22;34807;51.456;7.244;2023-09-30T05:48:20;14.70;98.00
48998;DHT22;34807;51.456;7.244;2023-09-30T05:50:46;14.70;97.70
48998;DHT22;34807;51.456;7.244;2023-09-30T05:53:11;14.70;97.70
48998;DHT22;34807;51.456;7.244;2023-09-30T05:55:37;14.70;97.70
48998;DHT22;34807;51.456;7.244;2023-09-30T05:58:03;14.60;97.70
48998;DHT22;34807;51.456;7.244;2023-09-30T06:00:28;14.60;97.70
48998;DHT22;34807;51.456;7.244;2023-09-30T06:02:56;14.60;97.70
48998;DHT22;34807;51.456;7.244;2023-09-30T06:05:22;14.60;97.70
48998;DHT22;34807;51.456;7.244;2023-09-30T06:07:48;14.60;97.70
48998;DHT22;34807;51.456;7.244;2023-09-30T06:10:13;14.60;97.70
48998;DHT22;34807;51.456;7.244;2023-09-30T06:12:44;14.60;97.70
48998;DHT22;34807;51.456;7.244;2023-09-30T06:15:10;14.60;97.70
48998;DHT22;34807;51.456;7.244;2023-09-30T06:17:35;14.60;97.70
48998;DHT22;34807;51.456;7.244;2023-09-30T06:20:03;14.60;97.70
48998;DHT22;34807;51.456;7.244;2023-09-30T06:22:33;14.60;97.70
48998;DHT22;34807;51.456;7.244;2023-09-30T06:24:59;14.60;97.70
48998;DHT22;34807;51.456;7.244;2023-09-30T06:27:24;14.60;97.70
48998;DHT22;34807;51.456;7.244;2023-09-30T06:29:50;14.60;97.70
48998;DHT22;34807;51.456;7.244;2023-09-30T06:32:15;14.60;97.70
48998;DHT22;34807;51.456;7.244;2023-09-30T06:34:41;14.60;97.70
48998;DHT22;34807;51.456;7.244;2023-09-30T06:37:06;14.60;97.70
48998;DHT22;34807;51.456;7.244;2023-09-30T06:39:33;14.60;97.70
48998;DHT22;34807;51.456;7.244;2023-09-30T06:41:59;14.60;97.70
48998;DHT22;34807;51.456;7.244;2023-09-30T06:44:24;14.60;97.70
48998;DHT22;34807;51.456;7.244;2023-09-30T06:46:50;14.60;97.70
48998;DHT22;34807;51.456;7.244;2023-09-30T06:49:16;14.60;97.70
48998;DHT22;34807;51.456;7.244;2023-09-30T06:51:41;14.60;97.70
48998;DHT22;34807;51.456;7.244;2023-09-30T06:54:07;14.60;97.70
48998;DHT22;34807;51.456;7.244;2023-09-30T06:56:33;14.60;97.70
48998;DHT22;34807;51.456;7.244;2023-09-30T06:58:58;14.60;97.70
48998;DHT22;34807;51.456;7.244;2023-09-30T07:01:24;14.60;97.70
48998;DHT22;34807;51.456;7.244;2023-09-30T07:03:50;14.60;97.70
48998;DHT22;34807;51.456;7.244;2023-09-30T07:06:25;14.70;97.70
48998;DHT22;34807;51.456;7.244;2023-09-30T07:08:52;14.60;97.70
48998;DHT22;34807;51.456;7.244;2023-09-30T07:11:26;14.70;97.70
48998;DHT22;34807;51.456;7.244;2023-09-30T07:13:51;14.70;97.80
48998;DHT22;34807;51.456;7.244;2023-09-30T07:16:17;14.70;97.70
48998;DHT22;34807;51.456;7.244;2023-09-30T07:18:42;14.70;97.70
48998;DHT22;34807;51.456;7.244;2023-09-30T07:21:08;14.70;97.70
48998;DHT22;34807;51.456;7.244;2023-09-30T07:23:33;14.70;97.70
48998;DHT22;34807;51.456;7.244;2023-09-30T07:25:59;14.70;97.70
48998;DHT22;34807;51.456;7.244;2023-09-30T07:28:24;14.80;97.70
48998;DHT22;34807;51.456;7.244;2023-09-30T07:30:50;14.70;97.60
48998;DHT22;34807;51.456;7.244;2023-09-30T07:33:15;14.70;97.60
48998;DHT22;34807;51.456;7.244;2023-09-30T07:35:41;14.70;97.60
48998;DHT22;34807;51.456;7.244;2023-09-30T07:38:06;14.80;97.70
48998;DHT22;34807;51.456;7.244;2023-09-30T07:40:32;14.80;97.60
48998;DHT22;34807;51.456;7.244;2023-09-30T07:42:58;14.80;97.60
48998;DHT22;34807;51.456;7.244;2023-09-30T07:45:23;14.80;97.60
48998;DHT22;34807;51.456;7.244;2023-09-30T07:47:49;14.80;97.60
48998;DHT22;34807;51.456;7.244;2023-09-30T07:50:16;14.80;97.60
48998;DHT22;34807;51.456;7.244;2023-09-30T07:52:41;14.80;97.50
48998;DHT22;34807;51.456;7.244;2023-09-30T07:55:08;14.80;97.60
48998;DHT22;34807;51.456;7.244;2023-09-30T07:57:33;14.80;97.50
48998;DHT22;34807;51.456;7.244;2023-09-30T07:59:59;14.90;97.40
48998;DHT22;34807;51.456;7.244;2023-09-30T08:02:24;14.80;97.40
48998;DHT22;34807;51.456;7.244;2023-09-30T08:04:53;14.90;97.50
48998;DHT22;34807;51.456;7.244;2023-09-30T08:07:18;14.90;97.50
48998;DHT22;34807;51.456;7.244;2023-09-30T08:09:44;14.90;97.50
48998;DHT22;34807;51.456;7.244;2023-09-30T08:12:09;14.90;97.40
48998;DHT22;34807;51.456;7.244;2023-09-30T08:14:35;15.00;97.50
48998;DHT22;34807;51.456;7.244;2023-09-30T08:17:00;15.00;97.50
48998;DHT22;34807;51.456;7.244;2023-09-30T08:19:27;15.00;97.30
48998;DHT22;34807;51.456;7.244;2023-09-30T08:21:53;15.00;97.40
48998;DHT22;34807;51.456;7.244;2023-09-30T08:24:18;15.00;97.30
48998;DHT22;34807;51.456;7.244;2023-09-30T08:26:44;15.10;97.40
48998;DHT22;34807;51.456;7.244;2023-09-30T08:29:09;15.10;97.40
48998;DHT22;34807;51.456;7.244;2023-09-30T08:31:35;15.10;97.30
48998;DHT22;34807;51.456;7.244;2023-09-30T08:34:00;15.20;97.30
48998;DHT22;34807;51.456;7.244;2023-09-30T08:36:29;15.20;97.30
48998;DHT22;34807;51.456;7.244;2023-09-30T08:38:55;15.20;97.40
48998;DHT22;34807;51.456;7.244;2023-09-30T08:41:33;15.20;97.30
48998;DHT22;34807;51.456;7.244;2023-09-30T08:43:59;15.20;97.20
48998;DHT22;34807;51.456;7.244;2023-09-30T08:46:26;15.30;97.30
48998;DHT22;34807;51.456;7.244;2023-09-30T08:48:52;15.30;97.20
48998;DHT22;34807;51.456;7.244;2023-09-30T08:51:18;15.30;97.20
48998;DHT22;34807;51.456;7.244;2023-09-30T08:53:44;15.40;97.10
48998;DHT22;34807;51.456;7.244;2023-09-30T08:56:10;15.40;97.10
48998;DHT22;34807;51.456;7.244;2023-09-30T08:58:37;15.40;97.20
48998;DHT22;34807;51.456;7.244;2023-09-30T09:01:03;15.50;97.10
48998;DHT22;34807;51.456;7.244;2023-09-30T09:03:28;15.50;97.10
48998;DHT22;34807;51.456;7.244;2023-09-30T09:05:55;15.60;96.90
48998;DHT22;34807;51.456;7.244;2023-09-30T09:08:21;15.60;96.80
48998;DHT22;34807;51.456;7.244;2023-09-30T09:10:53;15.60;96.70
48998;DHT22;34807;51.456;7.244;2023-09-30T09:13:19;15.70;96.70
48998;DHT22;34807;51.456;7.244;2023-09-30T09:15:45;15.80;96.70
48998;DHT22;34807;51.456;7.244;2023-09-30T09:18:11;15.90;96.50
48998;DHT22;34807;51.456;7.244;2023-09-30T09:20:38;15.90;96.30
48998;DHT22;34807;51.456;7.244;2023-09-30T09:23:04;16.00;96.30
48998;DHT22;34807;51.456;7.244;2023-09-30T09:25:33;16.00;96.30
48998;DHT22;34807;51.456;7.244;2023-09-30T09:28:03;16.10;96.30
48998;DHT22;34807;51.456;7.244;2023-09-30T09:30:28;16.10;96.20
48998;DHT22;34807;51.456;7.244;2023-09-30T09:33:04;16.20;96.10
48998;DHT22;34807;51.456;7.244;2023-09-30T09:35:31;16.30;96.00
48998;DHT22;34807;51.456;7.244;2023-09-30T09:38:01;16.20;95.90
48998;DHT22;34807;51.456;7.244;2023-09-30T09:40:28;16.20;96.20
48998;DHT22;34807;51.456;7.244;2023-09-30T09:42:54;16.20;96.10
48998;DHT22;34807;51.456;7.244;2023-09-30T09:45:21;16.20;96.10
48998;DHT22;34807;51.456;7.244;2023-09-30T09:47:48;16.20;96.40
48998;DHT22;34807;51.456;7.244;2023-09-30T09:50:14;16.20;96.20
48998;DHT22;34807;51.456;7.244;2023-09-30T09:52:41;16.20;96.20
48998;DHT22;34807;51.456;7.244;2023-09-30T09:55:10;16.20;96.30
48998;DHT22;34807;51.456;7.244;2023-09-30T09:57:35;16.20;96.20
48998;DHT22;34807;51.456;7.244;2023-09-30T10:00:01;16.30;96.30
48998;DHT22;34807;51.456;7.244;2023-09-30T10:02:30;16.40;96.20
48998;DHT22;34807;51.456;7.244;2023-09-30T10:04:56;16.40;96.10
48998;DHT22;34807;51.456;7.244;2023-09-30T10:07:22;16.40;96.00
48998;DHT22;34807;51.456;7.244;2023-09-30T10:09:50;16.50;96.00
48998;DHT22;34807;51.456;7.244;2023-09-30T10:12:17;16.50;95.90
48998;DHT22;34807;51.456;7.244;2023-09-30T10:14:43;16.60;95.80
48998;DHT22;34807;51.456;7.244;2023-09-30T10:17:09;16.60;95.80
48998;DHT22;34807;51.456;7.244;2023-09-30T10:19:35;16.70;95.70
48998;DHT22;34807;51.456;7.244;2023-09-30T10:24:48;16.70;95.60
48998;DHT22;34807;51.456;7.244;2023-09-30T10:29:58;16.80;95.50
48998;DHT22;34807;51.456;7.244;2023-09-30T10:35:11;16.90;95.30
48998;DHT22;34807;51.456;7.244;2023-09-30T10:37:37;16.90;95.30
48998;DHT22;34807;51.456;7.244;2023-09-30T10:40:03;17.00;95.40
48998;DHT22;34807;51.456;7.244;2023-09-30T10:43:03;17.00;95.30
48998;DHT22;34807;51.456;7.244;2023-09-30T10:51:00;17.10;95.20
48998;DHT22;34807;51.456;7.244;2023-09-30T10:53:29;17.20;95.20
48998;DHT22;34807;51.456;7.244;2023-09-30T10:55:59;17.20;95.10
48998;DHT22;34807;51.456;7.244;2023-09-30T11:01:09;17.30;95.00
48998;DHT22;34807;51.456;7.244;2023-09-30T11:03:35;17.30;95.00
48998;DHT22;34807;51.456;7.244;2023-09-30T11:06:02;17.40;95.00
48998;DHT22;34807;51.456;7.244;2023-09-30T11:08:28;17.40;95.00
48998;DHT22;34807;51.456;7.244;2023-09-30T11:10:55;17.40;94.90
48998;DHT22;34807;51.456;7.244;2023-09-30T11:13:21;17.50;94.90
48998;DHT22;34807;51.456;7.244;2023-09-30T11:15:47;17.50;94.90
48998;DHT22;34807;51.456;7.244;2023-09-30T11:18:13;17.60;94.80
48998;DHT22;34807;51.456;7.244;2023-09-30T11:20:39;17.70;94.80
48998;DHT22;34807;51.456;7.244;2023-09-30T11:23:05;17.70;94.80
48998;DHT22;34807;51.456;7.244;2023-09-30T11:25:34;17.80;94.70
48998;DHT22;34807;51.456;7.244;2023-09-30T11:28:18;17.80;94.70
48998;DHT22;34807;51.456;7.244;2023-09-30T11:31:00;17.90;94.70
48998;DHT22;34807;51.456;7.244;2023-09-30T11:33:25;17.90;94.60
48998;DHT22;34807;51.456;7.244;2023-09-30T11:36:01;18.00;94.60
48998;DHT22;34807;51.456;7.244;2023-09-30T11:38:28;18.10;94.60
48998;DHT22;34807;51.456;7.244;2023-09-30T11:41:03;18.10;94.20
48998;DHT22;34807;51.456;7.244;2023-09-30T11:43:35;18.10;94.30
48998;DHT22;34807;51.456;7.244;2023-09-30T11:46:11;18.10;94.50
48998;DHT22;34807;51.456;7.244;2023-09-30T11:48:41;18.20;94.70
48998;DHT22;34807;51.456;7.244;2023-09-30T11:51:21;18.20;94.10
48998;DHT22;34807;51.456;7.244;2023-09-30T11:53:49;18.30;94.40
48998;DHT22;34807;51.456;7.244;2023-09-30T11:56:15;18.30;94.10
48998;DHT22;34807;51.456;7.244;2023-09-30T11:58:41;18.40;94.50
48998;DHT22;34807;51.456;7.244;2023-09-30T12:01:07;18.40;94.30
48998;DHT22;34807;51.456;7.244;2023-09-30T12:03:32;18.40;94.20
48998;DHT22;34807;51.456;7.244;2023-09-30T12:06:04;18.40;94.20
48998;DHT22;34807;51.456;7.244;2023-09-30T12:08:30;18.50;94.20
48998;DHT22;34807;51.456;7.244;2023-09-30T12:10:55;18.50;94.30
48998;DHT22;34807;51.456;7.244;2023-09-30T12:13:21;18.50;94.20
48998;DHT22;34807;51.456;7.244;2023-09-30T12:15:46;18.60;94.20
48998;DHT22;34807;51.456;7.244;2023-09-30T12:18:12;18.60;94.20
48998;DHT22;34807;51.456;7.244;2023-09-30T12:20:40;18.70;93.90
48998;DHT22;34807;51.456;7.244;2023-09-30T12:23:06;18.70;94.00
48998;DHT22;34807;51.456;7.244;2023-09-30T12:25:32;18.80;93.90
48998;DHT22;34807;51.456;7.244;2023-09-30T12:27:58;18.80;93.90
48998;DHT22;34807;51.456;7.244;2023-09-30T12:30:24;18.80;93.80
48998;DHT22;34807;51.456;7.244;2023-09-30T12:32:49;18.80;93.50
48998;DHT22;34807;51.456;7.244;2023-09-30T12:35:15;18.90;93.80
48998;DHT22;34807;51.456;7.244;2023-09-30T12:37:41;18.80;93.90
48998;DHT22;34807;51.456;7.244;2023-09-30T12:40:08;18.90;94.00
48998;DHT22;34807;51.456;7.244;2023-09-30T12:42:36;18.90;94.00
48998;DHT22;34807;51.456;7.244;2023-09-30T12:45:02;19.00;94.00
48998;DHT22;34807;51.456;7.244;2023-09-30T12:47:28;19.00;93.80
48998;DHT22;34807;51.456;7.244;2023-09-30T12:49:53;19.00;93.80
48998;DHT22;34807;51.456;7.244;2023-09-30T12:52:23;19.00;93.80
48998;DHT22;34807;51.456;7.244;2023-09-30T12:54:49;19.00;93.80
48998;DHT22;34807;51.456;7.244;2023-09-30T12:57:15;19.00;93.60
48998;DHT22;34807;51.456;7.244;2023-09-30T12:59:43;19.10;93.90
48998;DHT22;34807;51.456;7.244;2023-09-30T13:02:11;19.10;93.40
48998;DHT22;34807;51.456;7.244;2023-09-30T13:04:37;19.10;93.70
48998;DHT22;34807;51.456;7.244;2023-09-30T13:07:08;19.20;93.60
48998;DHT22;34807;51.456;7.244;2023-09-30T13:09:33;19.20;93.50
48998;DHT22;34807;51.456;7.244;2023-09-30T13:11:59;19.10;93.60
48998;DHT22;34807;51.456;7.244;2023-09-30T13:14:25;19.10;93.60
48998;DHT22;34807;51.456;7.244;2023-09-30T13:16:53;19.10;93.70
48998;DHT22;34807;51.456;7.244;2023-09-30T13:19:19;19.20;93.70
48998;DHT22;34807;51.456;7.244;2023-09-30T13:21:47;19.20;94.00
48998;DHT22;34807;51.456;7.244;2023-09-30T13:24:13;19.30;93.50
48998;DHT22;34807;51.456;7.244;2023-09-30T13:26:39;19.30;93.80
48998;DHT22;34807;51.456;7.244;2023-09-30T13:29:04;19.30;93.90
48998;DHT22;34807;51.456;7.244;2023-09-30T13:31:30;19.30;93.50
48998;DHT22;34807;51.456;7.244;2023-09-30T13:33:56;19.30;93.70
48998;DHT22;34807;51.456;7.244;2023-09-30T13:36:22;19.30;93.60
48998;DHT22;34807;51.456;7.244;2023-09-30T13:38:47;19.30;93.60
48998;DHT22;34807;51.456;7.244;2023-09-30T13:41:14;19.40;93.70
48998;DHT22;34807;51.456;7.244;2023-09-30T13:43:41;19.40;93.30
48998;DHT22;34807;51.456;7.244;2023-09-30T13:46:06;19.40;93.10
48998;DHT22;34807;51.456;7.244;2023-09-30T13:48:32;19.40;93.20
48998;DHT22;34807;51.456;7.244;2023-09-30T13:51:08;19.50;93.20
48998;DHT22;34807;51.456;7.244;2023-09-30T13:53:33;19.40;93.10
48998;DHT22;34807;51.456;7.244;2023-09-30T13:55:59;19.40;93.10
48998;DHT22;34807;51.456;7.244;2023-09-30T13:58:25;19.40;93.20
48998;DHT22;34807;51.456;7.244;2023-09-30T14:00:50;19.50;93.20
48998;DHT22;34807;51.456;7.244;2023-09-30T14:03:19;19.50;93.30
48998;DHT22;34807;51.456;7.244;2023-09-30T14:05:47;19.50;93.20
48998;DHT22;34807;51.456;7.244;2023-09-30T14:08:13;19.50;93.10
48998;DHT22;34807;51.456;7.244;2023-09-30T14:10:39;19.60;93.10
48998;DHT22;34807;51.456;7.244;2023-09-30T14:13:04;19.60;93.00
48998;DHT22;34807;51.456;7.244;2023-09-30T14:15:30;19.60;92.90
48998;DHT22;34807;51.456;7.244;2023-09-30T14:17:56;19.60;93.00
48998;DHT22;34807;51.456;7.244;2023-09-30T14:20:23;19.60;93.00
48998;DHT22;34807;51.456;7.244;2023-09-30T14:22:49;19.60;93.00
48998;DHT22;34807;51.456;7.244;2023-09-30T14:25:17;19.50;93.00
48998;DHT22;34807;51.456;7.244;2023-09-30T14:27:42;19.50;93.20
48998;DHT22;34807;51.456;7.244;2023-09-30T14:30:08;19.50;93.10
48998;DHT22;34807;51.456;7.244;2023-09-30T14:32:34;19.50;93.30
48998;DHT22;34807;51.456;7.244;2023-09-30T14:34:59;19.50;93.50
48998;DHT22;34807;51.456;7.244;2023-09-30T14:37:25;19.50;93.40
48998;DHT22;34807;51.456;7.244;2023-09-30T14:39:50;19.50;93.50
48998;DHT22;34807;51.456;7.244;2023-09-30T14:42:16;19.50;93.50
48998;DHT22;34807;51.456;7.244;2023-09-30T14:44:41;19.50;93.30
48998;DHT22;34807;51.456;7.244;2023-09-30T14:47:08;19.50;93.40
48998;DHT22;34807;51.456;7.244;2023-09-30T14:49:34;19.50;93.20
48998;DHT22;34807;51.456;7.244;2023-09-30T14:51:59;19.50;93.30
48998;DHT22;34807;51.456;7.244;2023-09-30T14:54:25;19.50;93.30
48998;DHT22;34807;51.456;7.244;2023-09-30T14:56:51;19.50;93.00
48998;DHT22;34807;51.456;7.244;2023-09-30T14:59:16;19.50;93.20
48998;DHT22;34807;51.456;7.244;2023-09-30T15:01:42;19.50;93.20
48998;DHT22;34807;51.456;7.244;2023-09-30T15:04:08;19.50;93.30
48998;DHT22;34807;51.456;7.244;2023-09-30T15:06:33;19.40;93.10
48998;DHT22;34807;51.456;7.244;2023-09-30T15:09:02;19.50;93.20
48998;DHT22;34807;51.456;7.244;2023-09-30T15:11:29;19.40;93.30
48998;DHT22;34807;51.456;7.244;2023-09-30T15:13:55;19.40;93.30
48998;DHT22;34807;51.456;7.244;2023-09-30T15:16:21;19.40;93.40
48998;DHT22;34807;51.456;7.244;2023-09-30T15:18:47;19.50;93.40
48998;DHT22;34807;51.456;7.244;2023-09-30T15:21:13;19.50;93.30
48998;DHT22;34807;51.456;7.244;2023-09-30T15:23:40;19.40;93.20
48998;DHT22;34807;51.456;7.244;2023-09-30T15:26:05;19.40;93.30
48998;DHT22;34807;51.456;7.244;2023-09-30T15:28:31;19.40;93.30
48998;DHT22;34807;51.456;7.244;2023-09-30T15:30:58;19.40;93.30
48998;DHT22;34807;51.456;7.244;2023-09-30T15:33:24;19.40;93.30
48998;DHT22;34807;51.456;7.244;2023-09-30T15:35:50;19.40;93.30
48998;DHT22;34807;51.456;7.244;2023-09-30T15:38:15;19.40;93.30
48998;DHT22;34807;51.456;7.244;2023-09-30T15:41:14;19.40;93.30
48998;DHT22;34807;51.456;7.244;2023-09-30T15:43:32;19.30;93.40